Time;durP1;ratioP1;P1;durP2;ratioP2;P2;SDS_P1;SDS_P2;PMS_P1;PMS_P2;Temp;Humidity;BMP_temperature;BMP_pressure;BME280_temperature;BME280_humidity;BME280_pressure;Samples;Min_cycle;Max_cycle;Signal;HPM_P1;HPM_P2
2021/05/25 00:01:21;;;;;;;1999.90;999.90;;;13.00;99.90;;;;;;5036354;28;20564;-50
2021/05/25 00:03:47;;;;;;;1999.90;999.90;;;13.00;99.90;;;;;;5036408;28;20170;-52
2021/05/25 00:06:14;;;;;;;1999.90;999.90;;;13.00;99.90;;;;;;5036434;28;20261;-47
2021/05/25 00:08:41;;;;;;;1999.90;999.90;;;13.00;99.90;;;;;;5036336;28;20166;-53
2021/05/25 00:11:08;;;;;;;1999.90;999.90;;;13.00;99.90;;;;;;5036264;28;20198;-44
2021/05/25 00:13:35;;;;;;;1999.90;999.90;;;13.10;99.90;;;;;;5036072;28;20634;-44
2021/05/25 00:16:02;;;;;;;1999.90;999.90;;;13.10;99.90;;;;;;5036095;28;20216;-43
2021/05/25 00:18:29;;;;;;;1999.90;999.90;;;13.10;99.90;;;;;;5035952;28;20205;-49
2021/05/25 00:20:56;;;;;;;1999.90;999.90;;;13.10;99.90;;;;;;5035961;28;20216;-45
2021/05/25 00:23:23;;;;;;;1999.90;999.90;;;13.10;99.90;;;;;;5035980;28;20224;-50
2021/05/25 00:25:51;;;;;;;1999.90;999.90;;;13.20;99.90;;;;;;5035824;28;20232;-48
2021/05/25 00:28:23;;;;;;;1999.90;999.90;;;13.20;99.90;;;;;;5035684;28;20241;-50
2021/05/25 00:30:50;;;;;;;1999.90;999.90;;;13.30;99.90;;;;;;5035771;28;20187;-44
2021/05/25 00:33:17;;;;;;;1999.90;999.90;;;13.30;99.90;;;;;;5035797;28;20185;-48
2021/05/25 00:35:44;;;;;;;1999.90;999.90;;;13.30;99.90;;;;;;5035712;28;20178;-43
2021/05/25 00:38:12;;;;;;;1999.90;999.90;;;13.30;99.90;;;;;;5035772;28;20197;-44
2021/05/25 00:40:39;;;;;;;1999.90;999.90;;;13.30;99.90;;;;;;5035636;28;20205;-51
2021/05/25 00:43:06;;;;;;;1999.90;999.90;;;13.30;99.90;;;;;;5035837;28;20268;-51
2021/05/25 00:45:33;;;;;;;1999.90;999.90;;;13.40;99.90;;;;;;5035585;28;20189;-44
2021/05/25 00:48:00;;;;;;;1999.90;999.90;;;13.30;99.90;;;;;;5035500;28;20170;-44
2021/05/25 00:50:29;;;;;;;1999.90;999.90;;;13.40;99.90;;;;;;5035463;28;20215;-48
2021/05/25 00:52:59;;;;;;;1999.90;999.90;;;13.40;99.90;;;;;;5035444;28;20178;-45
2021/05/25 00:55:28;;;;;;;1999.90;999.90;;;13.40;99.90;;;;;;5035408;28;20205;-44
2021/05/25 00:57:57;;;;;;;1999.90;999.90;;;13.40;99.90;;;;;;5035322;28;20197;-44
2021/05/25 01:00:34;;;;;;;1999.90;999.90;;;13.50;99.90;;;;;;5035278;28;20223;-44
2021/05/25 01:03:02;;;;;;;1999.90;999.90;;;13.50;99.90;;;;;;5035360;28;20161;-44
2021/05/25 01:05:29;;;;;;;1999.90;999.90;;;13.50;99.90;;;;;;5035155;28;20178;-53
2021/05/25 01:07:58;;;;;;;1999.90;999.90;;;13.50;99.90;;;;;;5035182;28;20170;-44
2021/05/25 01:10:31;;;;;;;1999.90;999.90;;;13.50;99.90;;;;;;5035160;28;20510;-44
2021/05/25 01:13:03;;;;;;;1999.90;999.90;;;13.50;99.90;;;;;;5035075;28;20169;-49
2021/05/25 01:15:30;;;;;;;1999.90;999.90;;;13.50;99.90;;;;;;5033844;28;20169;-44
2021/05/25 01:17:57;;;;;;;1999.90;999.90;;;13.60;99.90;;;;;;5034957;28;20198;-47
2021/05/25 01:20:27;;;;;;;1999.90;999.90;;;13.60;99.90;;;;;;5034994;28;20206;-48
2021/05/25 01:22:54;;;;;;;1999.90;999.90;;;13.70;99.90;;;;;;5034903;28;20166;-43
2021/05/25 01:25:22;;;;;;;1999.90;999.90;;;13.60;99.90;;;;;;5034894;28;20166;-44
2021/05/25 01:27:58;;;;;;;1999.90;999.90;;;13.60;99.90;;;;;;5034567;28;20222;-44
2021/05/25 01:30:27;;;;;;;1999.90;999.90;;;13.60;99.90;;;;;;5034811;28;20188;-44
2021/05/25 01:32:55;;;;;;;1999.90;999.90;;;13.60;99.90;;;;;;5034662;28;20200;-48
2021/05/25 01:35:24;;;;;;;1999.90;999.90;;;13.70;99.90;;;;;;5034713;28;20200;-44
2021/05/25 01:37:52;;;;;;;1999.90;999.90;;;13.70;99.90;;;;;;5034494;28;20198;-44
2021/05/25 01:40:20;;;;;;;1999.90;999.90;;;13.70;99.90;;;;;;5034731;28;20633;-44
2021/05/25 01:42:47;;;;;;;1999.90;999.90;;;13.70;99.90;;;;;;5034676;28;20201;-44
2021/05/25 01:45:20;;;;;;;1999.90;999.90;;;13.70;99.90;;;;;;5034494;28;20189;-45
2021/05/25 01:47:47;;;;;;;1999.90;999.90;;;13.70;99.90;;;;;;5034541;28;20166;-47
2021/05/25 01:50:16;;;;;;;1999.90;999.90;;;13.80;99.90;;;;;;5034356;28;20168;-44
2021/05/25 01:52:50;;;;;;;1999.90;999.90;;;13.80;99.90;;;;;;5034359;28;20170;-52
2021/05/25 01:55:34;;;;;;;1999.90;999.90;;;13.80;99.90;;;;;;5034381;28;20162;-49
2021/05/25 01:58:07;;;;;;;1999.90;999.90;;;13.80;99.90;;;;;;5034241;28;20201;-50
2021/05/25 02:00:35;;;;;;;1999.90;999.90;;;13.80;99.90;;;;;;5034214;28;20190;-50
2021/05/25 02:03:02;;;;;;;1999.90;999.90;;;13.90;99.90;;;;;;5034129;28;20208;-52
2021/05/25 02:05:29;;;;;;;1999.90;999.90;;;13.90;99.90;;;;;;5034111;28;20213;-44
2021/05/25 02:07:56;;;;;;;1999.90;999.90;;;13.90;99.90;;;;;;5034007;28;20265;-44
2021/05/25 02:10:32;;;;;;;1999.90;999.90;;;13.90;99.90;;;;;;5033972;28;20235;-44
2021/05/25 02:13:08;;;;;;;1999.90;999.90;;;13.90;99.90;;;;;;5034012;28;20149;-44
2021/05/25 02:15:37;;;;;;;1999.90;999.90;;;13.90;99.90;;;;;;5033980;28;20154;-44
2021/05/25 02:18:15;;;;;;;1999.90;999.90;;;13.90;99.90;;;;;;5033830;28;20208;-52
2021/05/25 02:20:44;;;;;;;1999.90;999.90;;;13.90;99.90;;;;;;5033853;28;20165;-49
2021/05/25 02:23:12;;;;;;;1999.90;999.90;;;13.90;99.90;;;;;;5033110;28;20637;-44
2021/05/25 02:25:39;;;;;;;1999.90;999.90;;;13.90;99.90;;;;;;5033687;28;20166;-45
2021/05/25 02:28:07;;;;;;;1999.90;999.90;;;14.00;99.90;;;;;;5033502;28;20240;-45
2021/05/25 02:30:35;;;;;;;1999.90;999.90;;;14.00;99.90;;;;;;5033640;28;20225;-45
2021/05/25 02:33:08;;;;;;;1999.90;999.90;;;14.00;99.90;;;;;;5033826;28;20532;-44
2021/05/25 02:35:36;;;;;;;1999.90;999.90;;;14.10;99.90;;;;;;5033538;28;20161;-44
2021/05/25 02:38:08;;;;;;;1999.90;999.90;;;14.10;99.90;;;;;;5033327;28;20193;-49
2021/05/25 02:40:36;;;;;;;1999.90;999.90;;;14.10;99.90;;;;;;5033407;28;20169;-44
2021/05/25 02:43:03;;;;;;;1999.90;999.90;;;14.00;99.90;;;;;;5033336;28;20174;-44
2021/05/25 02:45:31;;;;;;;1999.90;999.90;;;14.00;99.90;;;;;;5033420;28;20173;-49
2021/05/25 02:47:58;;;;;;;1999.90;999.90;;;14.00;99.90;;;;;;5033298;28;20227;-50
2021/05/25 02:50:25;;;;;;;1999.90;999.90;;;14.00;99.90;;;;;;5033290;28;20236;-44
2021/05/25 02:52:53;;;;;;;1999.90;999.90;;;14.00;99.90;;;;;;5033340;28;20641;-55
2021/05/25 02:55:29;;;;;;;1999.90;999.90;;;14.00;99.90;;;;;;5033196;28;20247;-47
2021/05/25 02:57:57;;;;;;;1999.90;999.90;;;14.00;99.90;;;;;;5033103;28;20335;-44
2021/05/25 03:00:29;;;;;;;1999.90;999.90;;;14.10;99.90;;;;;;5033339;28;20170;-50
2021/05/25 03:02:56;;;;;;;1999.90;999.90;;;14.20;99.90;;;;;;5033029;28;20184;-44
2021/05/25 03:05:24;;;;;;;1999.90;999.90;;;14.10;99.90;;;;;;5033110;28;20702;-45
2021/05/25 03:07:56;;;;;;;1999.90;999.90;;;14.10;99.90;;;;;;5032993;28;20185;-44
2021/05/25 03:10:27;;;;;;;1999.90;999.90;;;14.20;99.90;;;;;;5033176;28;20166;-44
2021/05/25 03:12:54;;;;;;;1999.90;999.90;;;14.10;99.90;;;;;;5033190;28;20154;-49
2021/05/25 03:15:25;;;;;;;1999.90;999.90;;;14.10;99.90;;;;;;5032961;28;20592;-44
2021/05/25 03:17:52;;;;;;;1999.90;999.90;;;14.10;99.90;;;;;;5032867;28;20225;-49
2021/05/25 03:20:19;;;;;;;1999.90;999.90;;;14.20;99.90;;;;;;5032894;28;20181;-48
2021/05/25 03:22:46;;;;;;;1999.90;999.90;;;14.20;99.90;;;;;;5032849;28;20256;-43
2021/05/25 03:25:15;;;;;;;1999.90;999.90;;;14.30;99.90;;;;;;5032863;28;20640;-45
2021/05/25 03:27:42;;;;;;;1999.90;999.90;;;14.30;99.90;;;;;;5032614;28;20248;-44
2021/05/25 03:30:12;;;;;;;1999.90;999.90;;;14.30;99.90;;;;;;5032801;28;20162;-52
2021/05/25 03:32:39;;;;;;;1999.90;999.90;;;14.40;99.90;;;;;;5033148;28;20224;-49
2021/05/25 03:35:08;;;;;;;1999.90;999.90;;;14.30;99.90;;;;;;5036886;28;20165;-48
2021/05/25 03:37:36;;;;;;;1999.90;999.90;;;14.30;99.90;;;;;;5036757;28;20194;-44
2021/05/25 03:40:05;;;;;;;1999.90;999.90;;;14.30;99.90;;;;;;5036987;28;20170;-44
2021/05/25 03:42:32;;;;;;;1999.90;999.90;;;14.40;99.90;;;;;;5036746;28;20180;-44
2021/05/25 03:44:59;;;;;;;1999.90;999.90;;;14.40;99.90;;;;;;5036829;28;20219;-44
2021/05/25 03:47:27;;;;;;;1999.90;999.90;;;14.40;99.90;;;;;;5036774;28;20178;-44
2021/05/25 03:49:54;;;;;;;1999.90;999.90;;;14.40;99.90;;;;;;5036675;28;20221;-50
2021/05/25 03:52:21;;;;;;;1999.90;999.90;;;14.30;99.90;;;;;;5036539;28;20197;-45
2021/05/25 03:54:55;;;;;;;1999.90;999.90;;;14.30;99.90;;;;;;5036527;28;20181;-44
2021/05/25 03:58:48;;;;;;;1999.90;999.90;;;14.30;99.90;;;;;;5036462;28;20215;-52
2021/05/25 04:00:13;;;;;;;1999.90;999.90;;;14.40;99.90;;;;;;5036448;28;20223;-44
2021/05/25 04:02:40;;;;;;;1999.90;999.90;;;14.40;99.90;;;;;;5036408;28;20166;-49
2021/05/25 04:05:07;;;;;;;1999.90;999.90;;;14.40;99.90;;;;;;5036303;28;20174;-45
2021/05/25 04:07:34;;;;;;;1999.90;999.90;;;14.40;99.90;;;;;;5036262;28;20172;-45
2021/05/25 04:10:01;;;;;;;1999.90;999.90;;;14.40;99.90;;;;;;5036438;28;20641;-50
2021/05/25 04:12:28;;;;;;;1999.90;999.90;;;14.40;99.90;;;;;;5036286;28;20238;-44
2021/05/25 04:14:55;;;;;;;1999.90;999.90;;;14.40;99.90;;;;;;5036177;28;20636;-44
2021/05/25 04:17:21;;;;;;;1999.90;999.90;;;14.40;99.90;;;;;;5036038;28;20190;-44
2021/05/25 04:19:48;;;;;;;1999.90;999.90;;;14.40;99.90;;;;;;5035985;28;20176;-49
2021/05/25 04:22:15;;;;;;;1999.90;999.90;;;14.40;99.90;;;;;;5035916;28;20643;-44
2021/05/25 04:24:42;;;;;;;1999.90;999.90;;;14.50;99.90;;;;;;5035889;28;20167;-44
2021/05/25 04:27:09;;;;;;;1999.90;999.90;;;14.50;99.90;;;;;;5035601;28;20229;-54
2021/05/25 04:29:35;;;;;;;1999.90;999.90;;;14.50;99.90;;;;;;5035892;28;20190;-45
2021/05/25 04:32:04;;;;;;;1999.90;999.90;;;14.40;99.90;;;;;;5035911;28;20663;-44
2021/05/25 04:34:31;;;;;;;1999.90;999.90;;;14.40;99.90;;;;;;5035957;28;20162;-52
2021/05/25 04:36:58;;;;;;;1999.90;999.90;;;14.50;99.90;;;;;;5035469;28;20205;-50
2021/05/25 04:39:25;;;;;;;1999.90;999.90;;;14.40;99.90;;;;;;5035637;28;20228;-44
2021/05/25 04:41:52;;;;;;;1999.90;999.90;;;14.40;99.90;;;;;;5035406;28;20193;-44
2021/05/25 04:44:19;;;;;;;1999.90;999.90;;;14.50;99.90;;;;;;5034920;28;20626;-44
2021/05/25 04:46:46;;;;;;;1999.90;999.90;;;14.50;99.90;;;;;;5035308;28;20228;-44
2021/05/25 04:49:13;;;;;;;1999.90;999.90;;;14.50;99.90;;;;;;5035403;28;20576;-44
2021/05/25 04:51:45;;;;;;;1999.90;999.90;;;14.40;99.90;;;;;;5035333;28;20173;-46
2021/05/25 04:54:11;;;;;;;1999.90;999.90;;;14.40;99.90;;;;;;5035133;28;20174;-44
2021/05/25 04:56:40;;;;;;;1999.90;999.90;;;14.40;99.90;;;;;;5035065;28;20200;-48
2021/05/25 04:59:07;;;;;;;1999.90;999.90;;;14.40;99.90;;;;;;5035221;28;20172;-45
2021/05/25 05:01:34;;;;;;;1999.90;999.90;;;14.40;99.90;;;;;;5035237;28;20172;-44
2021/05/25 05:04:01;;;;;;;1999.90;999.90;;;14.40;99.90;;;;;;5035232;28;20179;-52
2021/05/25 05:06:27;;;;;;;1999.90;999.90;;;14.50;99.90;;;;;;5035042;28;20166;-49
2021/05/25 05:08:54;;;;;;;1999.90;999.90;;;14.50;99.90;;;;;;5034956;28;20176;-46
2021/05/25 05:11:21;;;;;;;1999.90;999.90;;;14.60;99.90;;;;;;5034952;28;20538;-45
2021/05/25 05:13:48;;;;;;;1999.90;999.90;;;14.70;99.90;;;;;;5034898;28;20184;-55
2021/05/25 05:16:15;;;;;;;1999.90;999.90;;;14.70;99.90;;;;;;5035114;28;20188;-46
2021/05/25 05:18:42;;;;;;;1999.90;999.90;;;14.70;99.90;;;;;;5034644;28;20206;-46
2021/05/25 05:21:09;;;;;;;1999.90;999.90;;;14.50;99.90;;;;;;5034808;28;20194;-52
2021/05/25 05:23:35;;;;;;;1999.90;999.90;;;14.40;99.90;;;;;;5034825;28;20616;-44
2021/05/25 05:26:04;;;;;;;1999.90;999.90;;;14.30;99.90;;;;;;5034611;28;20162;-44
2021/05/25 05:28:31;;;;;;;1999.90;999.90;;;14.20;99.90;;;;;;5034684;28;20639;-46
2021/05/25 05:30:58;;;;;;;1999.90;999.90;;;14.30;99.90;;;;;;5034568;28;21069;-54
2021/05/25 05:33:25;;;;;;;1999.90;999.90;;;14.30;99.90;;;;;;5034394;28;20597;-47
2021/05/25 05:35:51;;;;;;;1999.90;999.90;;;14.20;99.90;;;;;;5034419;28;20178;-43
2021/05/25 05:38:18;;;;;;;1999.90;999.90;;;14.30;99.90;;;;;;5034111;28;20221;-46
2021/05/25 05:40:46;;;;;;;1999.90;999.90;;;14.20;99.90;;;;;;5034048;28;20200;-45
2021/05/25 05:43:13;;;;;;;1999.90;999.90;;;14.10;99.90;;;;;;5034015;28;20252;-45
2021/05/25 05:45:40;;;;;;;1999.90;999.90;;;14.20;99.90;;;;;;5034002;28;20220;-45
2021/05/25 05:48:07;;;;;;;1999.90;999.90;;;14.30;99.90;;;;;;5034242;28;20174;-48
2021/05/25 05:50:34;;;;;;;1999.90;999.90;;;14.30;99.90;;;;;;5034309;28;20292;-46
2021/05/25 05:53:01;;;;;;;1999.90;999.90;;;14.40;99.90;;;;;;5033948;28;20177;-47
2021/05/25 05:55:28;;;;;;;1999.90;999.90;;;14.40;99.90;;;;;;5033737;28;20176;-50
2021/05/25 05:57:55;;;;;;;1999.90;999.90;;;14.40;99.90;;;;;;5032600;28;20592;-44
2021/05/25 06:00:23;;;;;;;1999.90;999.90;;;14.50;99.90;;;;;;5033785;28;20166;-46
2021/05/25 06:02:50;;;;;;;1999.90;999.90;;;14.50;99.90;;;;;;5033048;28;20174;-57
2021/05/25 06:05:17;;;;;;;1999.90;999.90;;;14.40;99.90;;;;;;5033155;28;20200;-45
2021/05/25 06:07:44;;;;;;;1999.90;999.90;;;14.50;99.90;;;;;;5033578;28;20528;-53
2021/05/25 06:10:11;;;;;;;1999.90;999.90;;;14.60;99.90;;;;;;5028669;28;20563;-46
2021/05/25 06:12:38;;;;;;;1999.90;999.90;;;14.80;99.90;;;;;;5031176;28;20169;-49
2021/05/25 06:15:05;;;;;;;1999.90;999.90;;;15.00;99.90;;;;;;5030819;28;20193;-47
2021/05/25 06:17:32;;;;;;;1999.90;999.90;;;15.00;99.90;;;;;;5032704;28;20237;-51
2021/05/25 06:19:59;;;;;;;1999.90;999.90;;;15.30;99.90;;;;;;5032400;28;20166;-51
2021/05/25 06:22:26;;;;;;;1999.90;999.90;;;15.30;99.90;;;;;;5028821;28;20329;-50
2021/05/25 06:24:53;;;;;;;1999.90;999.90;;;15.30;99.90;;;;;;5030895;28;20170;-57
2021/05/25 06:27:19;;;;;;;1999.90;999.90;;;15.20;99.90;;;;;;5031960;28;20560;-56
2021/05/25 06:29:47;;;;;;;1999.90;999.90;;;15.20;99.90;;;;;;5032027;28;20629;-45
2021/05/25 06:32:14;;;;;;;1999.90;999.90;;;15.10;99.90;;;;;;5032145;28;20182;-55
2021/05/25 06:34:40;;;;;;;1999.90;999.90;;;15.20;99.90;;;;;;5031430;28;20166;-52
2021/05/25 06:37:07;;;;;;;1999.90;999.90;;;15.10;99.90;;;;;;5031269;28;20564;-51
2021/05/25 06:39:34;;;;;;;1999.90;999.90;;;15.10;99.90;;;;;;5031861;28;20180;-48
2021/05/25 06:42:01;;;;;;;1999.90;999.90;;;15.00;99.90;;;;;;5032021;28;20952;-51
2021/05/25 06:44:31;;;;;;;1999.90;999.90;;;15.00;99.90;;;;;;5031773;28;20224;-49
2021/05/25 06:46:59;;;;;;;1999.90;999.90;;;15.00;99.90;;;;;;5032014;28;20256;-47
2021/05/25 06:49:26;;;;;;;1999.90;999.90;;;15.00;99.90;;;;;;5031932;28;20166;-57
2021/05/25 06:51:53;;;;;;;1999.90;999.90;;;15.10;99.90;;;;;;5031864;28;20162;-54
2021/05/25 06:54:20;;;;;;;1999.90;999.90;;;14.90;99.90;;;;;;5031811;28;20193;-59
2021/05/25 06:56:46;;;;;;;1999.90;999.90;;;15.00;99.90;;;;;;5031771;28;20204;-59
2021/05/25 06:59:13;;;;;;;1999.90;999.90;;;15.10;99.90;;;;;;5031640;28;20205;-59
2021/05/25 07:01:40;;;;;;;1999.90;999.90;;;15.10;99.90;;;;;;5031847;28;20288;-56
2021/05/25 07:04:07;;;;;;;1999.90;999.90;;;15.10;99.90;;;;;;5032009;28;20698;-49
2021/05/25 07:06:34;;;;;;;1999.90;999.90;;;15.00;99.90;;;;;;5031398;28;20162;-47
2021/05/25 07:09:00;;;;;;;1999.90;999.90;;;15.00;99.90;;;;;;5031167;28;20533;-49
2021/05/25 07:11:27;;;;;;;1999.90;999.90;;;15.00;99.90;;;;;;5031219;28;20599;-48
2021/05/25 07:13:54;;;;;;;1999.90;999.90;;;15.30;99.90;;;;;;5030193;28;20204;-47
2021/05/25 07:16:21;;;;;;;1999.90;999.90;;;15.30;99.90;;;;;;5031226;28;20158;-45
2021/05/25 07:18:47;;;;;;;1999.90;999.90;;;15.30;99.90;;;;;;5031510;28;20209;-40
2021/05/25 07:21:14;;;;;;;1999.90;999.90;;;15.80;99.90;;;;;;5031177;28;20200;-49
2021/05/25 07:23:41;;;;;;;1999.90;999.90;;;16.00;99.90;;;;;;5030713;28;20220;-48
2021/05/25 07:26:08;;;;;;;1999.90;999.90;;;15.90;99.90;;;;;;5031051;28;20228;-49
2021/05/25 07:28:39;;;;;;;1999.90;999.90;;;15.90;99.90;;;;;;5031450;28;20186;-48
2021/05/25 07:31:05;;;;;;;1999.90;999.90;;;15.80;99.90;;;;;;5031418;28;20174;-49
2021/05/25 07:33:32;;;;;;;1999.90;999.90;;;15.90;99.90;;;;;;5031400;28;20195;-47
2021/05/25 07:35:59;;;;;;;1999.90;999.90;;;15.90;99.90;;;;;;5031403;28;20190;-54
2021/05/25 07:38:26;;;;;;;1999.90;999.90;;;15.90;99.90;;;;;;5030468;28;20589;-52
2021/05/25 07:40:53;;;;;;;1999.90;999.90;;;16.30;99.90;;;;;;5031206;28;20172;-53
2021/05/25 07:43:20;;;;;;;1999.90;999.90;;;16.50;99.90;;;;;;5030982;28;20181;-43
2021/05/25 07:45:47;;;;;;;1999.90;999.90;;;16.60;99.90;;;;;;5031076;28;20632;-44
2021/05/25 07:48:14;;;;;;;1999.90;999.90;;;16.40;99.90;;;;;;5030744;28;20647;-43
2021/05/25 07:50:41;;;;;;;1999.90;999.90;;;16.10;99.90;;;;;;5031269;28;20178;-52
2021/05/25 07:53:08;;;;;;;1999.90;999.90;;;16.30;99.90;;;;;;5031312;28;20679;-45
2021/05/25 07:55:35;;;;;;;1999.90;999.90;;;16.50;99.90;;;;;;5031018;28;20192;-45
2021/05/25 07:58:02;;;;;;;1999.90;999.90;;;16.80;99.90;;;;;;5030831;28;20707;-46
2021/05/25 08:00:30;;;;;;;1999.90;999.90;;;17.20;99.90;;;;;;5030071;28;20181;-45
2021/05/25 08:02:57;;;;;;;1999.90;999.90;;;17.30;99.90;;;;;;5030919;28;20227;-45
2021/05/25 08:05:25;;;;;;;1999.90;999.90;;;17.50;99.90;;;;;;5031053;28;20205;-45
2021/05/25 08:07:52;;;;;;;1999.90;999.90;;;17.50;99.90;;;;;;5030683;28;20174;-49
2021/05/25 08:10:19;;;;;;;1999.90;999.90;;;17.00;99.90;;;;;;5030605;28;20205;-48
2021/05/25 08:12:46;;;;;;;1999.90;999.90;;;16.80;99.90;;;;;;5030698;28;20181;-49
2021/05/25 08:15:15;;;;;;;1999.90;999.90;;;16.60;99.90;;;;;;5030752;28;20190;-51
2021/05/25 08:17:56;;;;;;;1999.90;999.90;;;16.40;99.90;;;;;;5030508;28;20221;-53
2021/05/25 08:20:23;;;;;;;1999.90;999.90;;;16.30;99.90;;;;;;5031409;28;20150;-43
2021/05/25 08:22:52;;;;;;;1999.90;999.90;;;16.30;99.90;;;;;;5034221;28;20201;-53
2021/05/25 08:25:26;;;;;;;1999.90;999.90;;;16.60;99.90;;;;;;5034563;28;20296;-51
2021/05/25 08:27:54;;;;;;;1999.90;999.90;;;16.50;99.90;;;;;;5034196;28;20683;-45
2021/05/25 08:30:23;;;;;;;1999.90;999.90;;;16.40;99.90;;;;;;5034294;28;20193;-41
2021/05/25 08:32:51;;;;;;;1999.90;999.90;;;16.30;99.90;;;;;;5034624;28;20241;-44
2021/05/25 08:35:19;;;;;;;1999.90;999.90;;;16.30;99.90;;;;;;5035052;28;20275;-45
2021/05/25 08:38:00;;;;;;;1999.90;999.90;;;16.40;99.90;;;;;;5034449;28;20619;-46
2021/05/25 08:40:32;;;;;;;1999.90;999.90;;;16.20;99.90;;;;;;5034850;28;20204;-48
2021/05/25 08:43:00;;;;;;;1999.90;999.90;;;16.40;99.90;;;;;;5034766;28;20158;-50
2021/05/25 08:45:27;;;;;;;1999.90;999.90;;;16.90;99.90;;;;;;5034615;28;20690;-47
2021/05/25 08:47:56;;;;;;;1999.90;999.90;;;16.90;99.90;;;;;;5034284;28;20170;-50
2021/05/25 08:50:26;;;;;;;1999.90;999.90;;;16.90;99.90;;;;;;5034670;28;20296;-47
2021/05/25 08:52:56;;;;;;;1999.90;999.90;;;16.90;99.90;;;;;;5034820;28;20211;-46
2021/05/25 08:55:23;;;;;;;1999.90;999.90;;;17.10;99.90;;;;;;5034975;28;20173;-47
2021/05/25 08:57:50;;;;;;;1999.90;999.90;;;17.50;99.90;;;;;;5034517;28;20220;-53
2021/05/25 09:00:17;;;;;;;1999.90;999.90;;;17.80;99.90;;;;;;5034114;28;20173;-49
2021/05/25 09:02:44;;;;;;;1999.90;999.90;;;18.10;99.90;;;;;;5033860;28;20177;-43
2021/05/25 09:05:18;;;;;;;1999.90;999.90;;;18.20;99.90;;;;;;5034010;28;20178;-46
2021/05/25 09:07:53;;;;;;;1999.90;999.90;;;18.20;99.90;;;;;;5034029;28;20223;-46
2021/05/25 09:10:34;;;;;;;1999.90;999.90;;;18.10;99.90;;;;;;5034064;28;20268;-43
2021/05/25 09:13:02;;;;;;;1999.90;999.90;;;18.00;99.90;;;;;;5034528;28;20239;-48
2021/05/25 09:15:38;;;;;;;1999.90;999.90;;;18.00;99.90;;;;;;5033654;28;20249;-46
2021/05/25 09:18:10;;;;;;;1999.90;999.90;;;17.90;99.90;;;;;;5033895;28;20543;-53
2021/05/25 09:20:52;;;;;;;1999.90;999.90;;;17.90;99.90;;;;;;5033938;28;20154;-55
2021/05/25 09:23:21;;;;;;;1999.90;999.90;;;18.00;99.90;;;;;;5034169;28;20166;-52
2021/05/25 09:26:04;;;;;;;1999.90;999.90;;;18.20;99.90;;;;;;5033910;28;20193;-48
2021/05/25 09:28:32;;;;;;;1999.90;999.90;;;18.50;99.90;;;;;;5034065;28;20197;-60
2021/05/25 09:30:59;;;;;;;1999.90;999.90;;;18.50;99.90;;;;;;5033617;28;20200;-56
2021/05/25 09:33:29;;;;;;;1999.90;999.90;;;18.80;99.90;;;;;;5033649;28;20170;-45
2021/05/25 09:35:56;;;;;;;1999.90;999.90;;;19.00;99.90;;;;;;5033509;28;20177;-49
2021/05/25 09:38:27;;;;;;;1999.90;999.90;;;18.90;99.90;;;;;;5033235;28;20201;-59
2021/05/25 09:41:01;;;;;;;1999.90;999.90;;;18.80;99.90;;;;;;5033844;28;20158;-53
2021/05/25 10:09:43;;;;;;;1999.90;999.90;;;18.50;99.90;;;;;;5109606;27;20489;-51
2021/05/25 10:12:10;;;;;;;1999.90;999.90;;;18.80;99.90;;;;;;5110043;28;20174;-51
2021/05/25 10:14:37;;;;;;;1999.90;999.90;;;18.90;99.90;;;;;;5109562;28;20175;-40
2021/05/25 10:17:06;;;;;;;1999.90;999.90;;;18.80;99.90;;;;;;5109472;28;20167;-37
2021/05/25 10:19:33;;;;;;;1999.90;999.90;;;18.70;99.90;;;;;;5091570;28;20194;-39
2021/05/25 10:22:00;;;;;;;1999.90;999.90;;;18.40;99.90;;;;;;5109633;28;20172;-46
2021/05/25 10:24:27;;;;;;;1999.90;999.90;;;18.30;99.90;;;;;;5109568;28;20186;-40
2021/05/25 10:26:54;;;;;;;1999.90;999.90;;;18.30;99.90;;;;;;5109631;28;20195;-39
2021/05/25 10:29:21;;;;;;;1999.90;999.90;;;18.30;99.90;;;;;;5109317;28;20500;-40
2021/05/25 10:32:00;;;;;;;1999.90;999.90;;;18.20;99.90;;;;;;5109221;28;20194;-41
2021/05/25 10:34:35;;;;;;;1999.90;999.90;;;18.20;99.90;;;;;;5109406;28;20242;-41
2021/05/25 10:37:03;;;;;;;1999.90;999.90;;;18.10;99.90;;;;;;5109041;28;20330;-41
2021/05/25 10:39:40;;;;;;;1999.90;999.90;;;18.00;99.90;;;;;;5109144;28;20203;-40
2021/05/25 10:42:25;;;;;;;1999.90;999.90;;;18.00;99.90;;;;;;5108895;28;20159;-42
2021/05/25 10:44:58;;;;;;;1999.90;999.90;;;18.00;99.90;;;;;;5109149;28;20186;-44
2021/05/25 10:47:35;;;;;;;1999.90;999.90;;;18.00;99.90;;;;;;5109175;28;20171;-48
2021/05/25 10:50:24;;;;;;;1999.90;999.90;;;18.30;99.90;;;;;;5109340;28;20165;-44
2021/05/25 10:52:58;;;;;;;1999.90;999.90;;;18.80;99.90;;;;;;5108776;28;20576;-38
2021/05/25 10:55:34;;;;;;;1999.90;999.90;;;18.80;99.90;;;;;;5096398;28;20164;-45
2021/05/25 10:58:32;;;;;;;1999.90;999.90;;;18.90;99.90;;;;;;5074498;28;20168;-44
2021/05/25 11:01:08;;;;;;;1999.90;999.90;;;19.10;99.90;;;;;;5075010;28;20159;-40
2021/05/25 11:03:35;;;;;;;1999.90;999.90;;;19.00;99.90;;;;;;5074755;28;20200;-46
2021/05/25 11:06:06;;;;;;;1999.90;999.90;;;19.00;99.90;;;;;;5074897;28;20165;-45
2021/05/25 11:08:36;;;;;;;1999.90;999.90;;;19.00;99.90;;;;;;5074521;28;20259;-50
2021/05/25 11:11:11;;;;;;;1999.90;999.90;;;18.90;99.90;;;;;;5074776;28;20542;-46
2021/05/25 11:13:57;;;;;;;1999.90;999.90;;;18.90;99.90;;;;;;5074571;28;20155;-51
2021/05/25 11:16:38;;;;;;;1999.90;999.90;;;19.00;99.90;;;;;;5074570;28;20623;-44
2021/05/25 11:19:06;;;;;;;1999.90;999.90;;;19.20;99.90;;;;;;5075063;28;20210;-45
2021/05/25 11:21:46;;;;;;;1999.90;999.90;;;19.20;99.90;;;;;;5074647;28;20230;-42
2021/05/25 11:24:46;;;;;;;1999.90;999.90;;;19.20;99.90;;;;;;5074597;28;20188;-51
2021/05/25 11:27:33;;;;;;;1999.90;999.90;;;19.10;99.90;;;;;;5074597;28;20615;-46
2021/05/25 11:30:14;;;;;;;1999.90;999.90;;;19.10;99.90;;;;;;5074343;28;20159;-55
2021/05/25 11:32:47;;;;;;;1999.90;999.90;;;19.20;99.90;;;;;;5074600;28;20186;-56
2021/05/25 11:35:21;;;;;;;1999.90;999.90;;;19.50;99.90;;;;;;5074708;28;20164;-48
2021/05/25 11:37:52;;;;;;;1999.90;999.90;;;19.90;99.90;;;;;;5074536;28;20165;-46
2021/05/25 11:40:27;;;;;;;1999.90;999.90;;;20.30;99.90;;;;;;5074144;28;20169;-55
2021/05/25 11:42:55;;;;;;;1999.90;999.90;;;20.40;99.90;;;;;;5074121;28;20192;-45
2021/05/25 11:45:25;;;;;;;1999.90;999.90;;;20.40;99.90;;;;;;5074139;28;20233;-42
2021/05/25 11:47:56;;;;;;;1999.90;999.90;;;20.30;99.90;;;;;;5074152;28;20164;-44
2021/05/25 11:50:23;;;;;;;1999.90;999.90;;;20.30;99.90;;;;;;5074466;28;20180;-47
2021/05/25 11:52:51;;;;;;;1999.90;999.90;;;20.40;99.90;;;;;;5089866;28;20657;-42
2021/05/25 11:55:21;;;;;;;1999.90;999.90;;;20.40;99.90;;;;;;5074048;28;20199;-40
2021/05/25 11:57:49;;;;;;;1999.90;999.90;;;20.30;99.90;;;;;;5073964;28;20193;-41
2021/05/25 12:00:36;;;;;;;1999.90;999.90;;;20.50;99.90;;;;;;5074226;28;20164;-40
2021/05/25 12:03:08;;;;;;;1999.90;999.90;;;20.70;99.90;;;;;;5073966;28;20682;-41
2021/05/25 12:05:35;;;;;;;1999.90;999.90;;;20.80;99.90;;;;;;5073084;28;20637;-41
2021/05/25 12:08:04;;;;;;;1999.90;999.90;;;20.60;99.90;;;;;;5073681;28;20248;-43
2021/05/25 12:10:34;;;;;;;1999.90;999.90;;;20.40;99.90;;;;;;5073839;28;20179;-43
2021/05/25 12:13:14;;;;;;;1999.90;999.90;;;20.40;99.90;;;;;;5074002;28;20176;-47
2021/05/25 12:15:47;;;;;;;1999.90;999.90;;;20.50;99.90;;;;;;5073991;28;20156;-64
2021/05/25 12:18:20;;;;;;;1999.90;999.90;;;20.40;99.90;;;;;;5073824;28;20649;-59
2021/05/25 12:20:55;;;;;;;1999.90;999.90;;;20.50;99.90;;;;;;5073502;28;20156;-51
2021/05/25 12:23:28;;;;;;;1999.90;999.90;;;20.40;99.90;;;;;;5073459;28;20203;-48
2021/05/25 12:25:57;;;;;;;1999.90;999.90;;;20.40;99.90;;;;;;5073449;28;20642;-42
2021/05/25 12:28:35;;;;;;;1999.90;999.90;;;20.40;99.90;;;;;;5073821;28;20527;-54
2021/05/25 12:31:03;;;;;;;1999.90;999.90;;;20.50;99.90;;;;;;5073430;28;20168;-50
2021/05/25 12:33:34;;;;;;;1999.90;999.90;;;20.70;99.90;;;;;;5073155;28;20207;-39
2021/05/25 12:36:41;;;;;;;1999.90;999.90;;;20.70;99.90;;;;;;5073050;28;20176;-55